Time;durP1;ratioP1;P1;durP2;ratioP2;P2;SDS_P1;SDS_P2;PMS_P1;PMS_P2;Temp;Humidity;BMP_temperature;BMP_pressure;BME280_temperature;BME280_humidity;BME280_pressure;Samples;Min_cycle;Max_cycle;Signal;HPM_P1;HPM_P2
2022/03/25 00:00:02;;;;;;;35.75;15.73;;;;;;;-0.57;65.83;99492.88;2625797;28;20455;-78
2022/03/25 00:01:18;;;;;;;40.83;16.92;;;;;;;-0.51;65.30;99495.66;2625654;28;20394;-78
2022/03/25 00:02:33;;;;;;;36.83;17.20;;;;;;;-0.50;65.56;99491.38;2624772;28;20040;-77
2022/03/25 00:03:49;;;;;;;42.45;16.60;;;;;;;-0.47;65.43;99494.94;2625352;28;20052;-78
2022/03/25 00:05:06;;;;;;;38.00;16.52;;;;;;;-0.42;64.63;99495.09;2625326;28;20048;-78
2022/03/25 00:06:22;;;;;;;42.78;18.00;;;;;;;-0.37;65.29;99490.09;2624962;28;20425;-78
2022/03/25 00:07:37;;;;;;;38.92;17.55;;;;;;;-0.34;65.03;99493.66;2625042;28;20084;-78
2022/03/25 00:08:53;;;;;;;37.15;17.05;;;;;;;-0.35;64.91;99489.34;2625811;28;20457;-78
2022/03/25 00:10:09;;;;;;;38.53;17.98;;;;;;;-0.38;65.63;99485.78;2625793;28;20098;-78
2022/03/25 00:11:25;;;;;;;44.90;18.48;;;;;;;-0.33;65.20;99489.38;2625196;28;20048;-77
2022/03/25 00:12:41;;;;;;;44.05;18.45;;;;;;;-0.33;66.01;99494.53;2625172;28;20871;-78
2022/03/25 00:13:56;;;;;;;40.97;17.10;;;;;;;-0.34;65.68;99492.78;2625512;28;20466;-78
2022/03/25 00:15:12;;;;;;;42.15;17.40;;;;;;;-0.25;67.09;99490.50;2626171;28;20124;-78
2022/03/25 00:16:28;;;;;;;37.90;17.23;;;;;;;-0.20;66.93;99490.66;2626250;28;20097;-78
2022/03/25 00:17:43;;;;;;;37.38;16.80;;;;;;;-0.23;64.98;99494.00;2625465;28;20122;-78
2022/03/25 00:18:59;;;;;;;39.55;17.05;;;;;;;-0.31;65.40;99495.44;2625453;28;20040;-79
2022/03/25 00:20:15;;;;;;;38.40;16.70;;;;;;;-0.32;65.43;99496.25;2626061;28;20089;-78
2022/03/25 00:21:30;;;;;;;34.45;17.20;;;;;;;-0.36;64.95;99497.84;2625037;28;20506;-77
2022/03/25 00:22:46;;;;;;;38.08;16.17;;;;;;;-0.40;64.65;99492.59;2625320;28;20050;-78
2022/03/25 00:24:02;;;;;;;33.97;16.13;;;;;;;-0.46;65.17;99494.09;2626153;28;20055;-79
2022/03/25 00:25:18;;;;;;;35.35;15.90;;;;;;;-0.48;64.48;99492.31;2625564;28;20051;-78
2022/03/25 00:26:33;;;;;;;36.00;16.27;;;;;;;-0.53;65.00;99489.59;2624764;28;20036;-78
2022/03/25 00:27:49;;;;;;;33.25;15.63;;;;;;;-0.55;65.34;99490.34;2625418;28;20087;-77
2022/03/25 00:29:04;;;;;;;35.50;15.90;;;;;;;-0.62;65.56;99491.84;2624738;28;20044;-77
2022/03/25 00:30:20;;;;;;;40.33;16.48;;;;;;;-0.66;66.52;99490.00;2624428;28;20059;-78
2022/03/25 00:31:36;;;;;;;34.85;15.40;;;;;;;-0.69;66.52;99495.03;2625592;28;20387;-77
2022/03/25 00:32:51;;;;;;;39.63;17.45;;;;;;;-0.78;67.09;99487.88;2625007;28;20055;-80
2022/03/25 00:34:08;;;;;;;36.28;16.08;;;;;;;-0.84;66.73;99483.38;2626209;28;20048;-77
2022/03/25 00:35:24;;;;;;;42.15;16.80;;;;;;;-0.86;67.35;99487.59;2625312;28;20445;-80
2022/03/25 00:36:40;;;;;;;37.28;15.55;;;;;;;-0.90;67.68;99485.75;2625244;28;20044;-79
2022/03/25 00:37:55;;;;;;;41.83;16.15;;;;;;;-0.93;67.86;99488.22;2625425;28;20058;-77
2022/03/25 00:39:11;;;;;;;39.83;16.85;;;;;;;-0.95;67.67;99487.28;2625352;28;20206;-79
2022/03/25 00:40:27;;;;;;;31.95;15.45;;;;;;;-0.95;68.04;99484.72;2625273;28;20052;-78
2022/03/25 00:41:44;;;;;;;35.30;16.42;;;;;;;-0.93;67.06;99481.38;2625643;28;20056;-78
2022/03/25 00:43:00;;;;;;;37.63;16.67;;;;;;;-0.93;67.42;99489.06;2625409;28;20048;-77
2022/03/25 00:44:18;;;;;;;36.95;15.52;;;;;;;-0.97;67.42;99483.81;2625266;28;20051;-77
2022/03/25 00:45:33;;;;;;;38.55;15.60;;;;;;;-0.98;67.07;99494.88;2625643;28;20076;-77
2022/03/25 00:46:49;;;;;;;39.63;16.73;;;;;;;-1.01;67.11;99491.38;2625347;28;20075;-78
2022/03/25 00:48:05;;;;;;;34.15;15.45;;;;;;;-1.05;67.52;99486.97;2624571;28;20044;-78
2022/03/25 00:49:20;;;;;;;40.53;15.95;;;;;;;-1.04;67.20;99485.28;2625671;28;20079;-77
2022/03/25 00:50:36;;;;;;;36.50;16.83;;;;;;;-1.09;66.98;99482.53;2624850;28;21002;-77
2022/03/25 00:51:53;;;;;;;35.95;15.20;;;;;;;-1.12;66.75;99482.41;2626248;28;20414;-77
2022/03/25 00:53:10;;;;;;;39.50;15.27;;;;;;;-1.21;67.10;99485.53;2626078;28;20044;-78
2022/03/25 00:54:26;;;;;;;29.27;14.48;;;;;;;-1.22;66.95;99478.63;2625743;28;20554;-77
2022/03/25 00:55:42;;;;;;;35.75;15.90;;;;;;;-1.24;66.50;99479.41;2625551;28;20044;-78
2022/03/25 00:56:58;;;;;;;38.85;15.57;;;;;;;-1.25;66.55;99477.69;2625641;28;20056;-77
2022/03/25 00:58:15;;;;;;;33.80;15.38;;;;;;;-1.31;67.85;99479.19;2624646;28;20056;-78
2022/03/25 00:59:30;;;;;;;35.90;16.35;;;;;;;-1.35;67.49;99482.47;2624983;28;20040;-77
2022/03/25 01:00:46;;;;;;;35.30;15.55;;;;;;;-1.35;67.60;99471.28;2625689;28;20393;-77
2022/03/25 01:02:03;;;;;;;36.35;16.05;;;;;;;-1.40;67.57;99473.69;2625432;28;20491;-78
2022/03/25 01:03:18;;;;;;;37.30;15.68;;;;;;;-1.38;67.93;99469.50;2625159;28;20051;-77
2022/03/25 01:04:34;;;;;;;34.50;15.20;;;;;;;-1.37;67.88;99467.81;2625016;28;20044;-78
2022/03/25 01:05:50;;;;;;;37.65;16.63;;;;;;;-1.35;67.47;99461.91;2625417;28;20486;-80
2022/03/25 01:07:05;;;;;;;36.50;16.42;;;;;;;-1.35;67.30;99468.72;2625457;28;20048;-77
2022/03/25 01:08:21;;;;;;;37.47;16.60;;;;;;;-1.37;68.38;99463.56;2625409;28;20941;-77
2022/03/25 01:09:37;;;;;;;32.40;15.00;;;;;;;-1.36;68.91;99459.28;2625548;28;20047;-77
2022/03/25 01:10:53;;;;;;;36.45;15.88;;;;;;;-1.36;68.61;99460.16;2625273;28;20457;-77
2022/03/25 01:12:10;;;;;;;38.05;16.45;;;;;;;-1.31;69.09;99458.63;2625262;28;20040;-78
2022/03/25 01:13:26;;;;;;;36.90;16.58;;;;;;;-1.25;68.10;99457.13;2625366;28;20051;-78
2022/03/25 01:14:41;;;;;;;37.13;16.15;;;;;;;-1.24;68.03;99458.88;2625561;28;20044;-78
2022/03/25 01:15:57;;;;;;;36.97;16.48;;;;;;;-1.21;67.50;99458.97;2625483;28;20540;-78
2022/03/25 01:17:12;;;;;;;33.65;16.63;;;;;;;-1.19;67.92;99465.03;2624996;28;20059;-80
2022/03/25 01:18:28;;;;;;;33.25;16.10;;;;;;;-1.21;67.73;99459.81;2625560;28;20056;-77
2022/03/25 01:19:44;;;;;;;37.42;15.63;;;;;;;-1.22;67.71;99457.22;2625051;28;20049;-78
2022/03/25 01:21:00;;;;;;;32.55;14.30;;;;;;;-1.22;67.20;99462.34;2624831;28;20048;-78
2022/03/25 01:22:16;;;;;;;33.03;14.40;;;;;;;-1.22;66.60;99467.50;2625666;28;20059;-78
2022/03/25 01:23:31;;;;;;;33.97;15.70;;;;;;;-1.22;66.73;99464.94;2625002;28;20486;-78
2022/03/25 01:24:48;;;;;;;34.53;15.90;;;;;;;-1.23;67.17;99468.31;2625211;28;20056;-78
2022/03/25 01:26:04;;;;;;;35.42;16.15;;;;;;;-1.24;67.38;99464.88;2625461;28;20418;-78
2022/03/25 01:27:21;;;;;;;35.25;15.65;;;;;;;-1.27;67.62;99464.75;2625247;28;20324;-78
2022/03/25 01:28:37;;;;;;;38.47;16.70;;;;;;;-1.31;67.63;99461.19;2624945;28;20761;-79
2022/03/25 01:29:52;;;;;;;34.40;15.60;;;;;;;-1.34;67.41;99461.09;2625665;28;20043;-77
2022/03/25 01:31:11;;;;;;;34.78;16.40;;;;;;;-1.34;67.53;99462.78;2625279;28;20143;-78
2022/03/25 01:32:27;;;;;;;35.95;15.23;;;;;;;-1.38;68.61;99461.81;2625403;28;20043;-78
2022/03/25 01:33:42;;;;;;;40.22;16.63;;;;;;;-1.40;68.40;99468.56;2624486;28;20115;-78
2022/03/25 01:34:58;;;;;;;38.67;16.75;;;;;;;-1.42;67.11;99462.50;2625180;28;20059;-78
2022/03/25 01:36:14;;;;;;;33.60;15.23;;;;;;;-1.52;68.35;99463.84;2624930;28;20100;-79
2022/03/25 01:37:30;;;;;;;37.20;16.20;;;;;;;-1.60;68.62;99463.56;2624241;28;20404;-78
2022/03/25 01:38:45;;;;;;;41.08;16.55;;;;;;;-1.68;68.28;99459.81;2625245;28;21087;-77
2022/03/25 01:40:01;;;;;;;32.92;16.02;;;;;;;-1.75;68.43;99463.84;2624727;28;20052;-79
2022/03/25 01:41:18;;;;;;;36.25;16.00;;;;;;;-1.75;67.87;99461.28;2625709;28;20059;-78
2022/03/25 01:42:39;;;;;;;34.65;15.85;;;;;;;-1.79;68.25;99468.84;2626162;28;20040;-78
2022/03/25 01:43:57;;;;;;;36.90;14.95;;;;;;;-1.80;68.83;99464.53;2627559;28;20525;-77
2022/03/25 01:45:12;;;;;;;37.10;16.20;;;;;;;-1.89;69.36;99463.34;2626425;28;20080;-78
2022/03/25 01:46:28;;;;;;;37.67;16.23;;;;;;;-1.94;68.79;99470.00;2627455;28;20491;-78
2022/03/25 01:47:43;;;;;;;35.28;15.73;;;;;;;-1.97;68.59;99458.72;2626787;28;20478;-78
2022/03/25 01:48:59;;;;;;;34.60;16.42;;;;;;;-2.00;69.17;99457.78;2627553;28;20044;-77
2022/03/25 01:50:19;;;;;;;32.83;15.65;;;;;;;-2.02;69.03;99463.69;2626155;28;20112;-77
2022/03/25 01:51:36;;;;;;;38.38;16.27;;;;;;;-2.06;69.30;99457.53;2627040;28;20129;-78
2022/03/25 01:52:53;;;;;;;31.73;15.25;;;;;;;-2.12;70.42;99462.44;2626489;28;20486;-78
2022/03/25 01:54:27;;;;;;;35.63;15.65;;;;;;;-2.08;70.75;99456.59;2627252;28;20039;-79
2022/03/25 01:55:56;;;;;;;34.78;16.20;;;;;;;-2.03;69.58;99462.78;2627914;28;20483;-77
2022/03/25 01:57:12;;;;;;;37.22;16.13;;;;;;;-1.98;69.96;99460.41;2626836;28;20117;-77
2022/03/25 01:58:30;;;;;;;39.38;17.60;;;;;;;-1.97;70.01;99458.72;2627708;28;20052;-77
2022/03/25 01:59:46;;;;;;;33.17;16.13;;;;;;;-1.95;70.51;99459.66;2626707;28;20055;-77
2022/03/25 02:01:03;;;;;;;35.05;16.17;;;;;;;-1.97;70.25;99462.16;2626505;28;20044;-78
2022/03/25 02:02:19;;;;;;;31.63;14.95;;;;;;;-2.00;70.78;99455.22;2626287;28;20058;-78
2022/03/25 02:03:35;;;;;;;30.83;15.13;;;;;;;-2.01;70.40;99458.63;2626548;28;20490;-77
2022/03/25 02:04:52;;;;;;;36.00;15.77;;;;;;;-2.01;69.05;99455.16;2627785;28;20658;-77
2022/03/25 02:06:08;;;;;;;36.08;16.00;;;;;;;-1.99;70.00;99453.53;2625818;28;20089;-77
2022/03/25 02:07:24;;;;;;;36.03;16.00;;;;;;;-2.00;70.00;99455.22;2626626;28;20095;-78
2022/03/25 02:08:40;;;;;;;36.15;16.48;;;;;;;-1.98;68.92;99457.84;2626601;28;20048;-77
2022/03/25 02:09:56;;;;;;;42.60;17.23;;;;;;;-1.93;69.02;99452.88;2626969;28;20052;-78
2022/03/25 02:11:12;;;;;;;40.03;17.77;;;;;;;-1.94;69.83;99457.16;2627735;28;20905;-78
2022/03/25 02:12:28;;;;;;;34.08;16.70;;;;;;;-1.96;70.07;99460.47;2627405;28;20127;-77
2022/03/25 02:13:44;;;;;;;35.78;15.95;;;;;;;-1.98;69.95;99452.69;2628453;28;20067;-78
2022/03/25 02:15:00;;;;;;;33.25;15.43;;;;;;;-1.99;70.42;99450.97;2628562;28;20097;-78
2022/03/25 02:16:15;;;;;;;37.92;15.43;;;;;;;-2.00;69.82;99455.22;2628146;28;20039;-77
2022/03/25 02:17:31;;;;;;;39.08;17.15;;;;;;;-2.02;69.42;99459.44;2628063;28;20082;-77
2022/03/25 02:18:47;;;;;;;35.22;16.27;;;;;;;-2.03;69.35;99452.53;2627761;28;20052;-77
2022/03/25 02:20:08;;;;;;;35.63;17.50;;;;;;;-2.05;69.87;99459.28;2627536;28;20528;-78
2022/03/25 02:21:23;;;;;;;35.47;16.77;;;;;;;-2.05;69.92;99458.44;2628021;28;20997;-78
2022/03/25 02:22:40;;;;;;;35.03;15.48;;;;;;;-2.07;69.69;99458.34;2626433;28;20131;-78
2022/03/25 02:23:56;;;;;;;34.33;16.73;;;;;;;-2.08;69.72;99460.88;2627008;28;20846;-79
2022/03/25 02:25:14;;;;;;;36.47;15.70;;;;;;;-2.11;70.16;99463.31;2627629;28;20052;-78
2022/03/25 02:26:29;;;;;;;38.60;17.00;;;;;;;-2.15;70.68;99450.34;2628342;28;20055;-77
2022/03/25 02:27:47;;;;;;;38.13;16.15;;;;;;;-2.13;70.44;99459.00;2627484;28;20047;-79
2022/03/25 02:29:05;;;;;;;37.97;17.13;;;;;;;-2.13;70.75;99459.00;2627778;28;20055;-78
2022/03/25 02:30:20;;;;;;;35.65;16.45;;;;;;;-2.19;70.64;99456.19;2627435;28;20468;-77
2022/03/25 02:31:37;;;;;;;33.85;14.90;;;;;;;-2.24;70.91;99460.25;2627905;28;20052;-82
2022/03/25 02:32:53;;;;;;;32.25;14.75;;;;;;;-2.33;71.67;99462.47;2627280;28;20048;-79
2022/03/25 02:34:10;;;;;;;37.97;15.90;;;;;;;-2.37;72.27;99461.47;2628130;28;20127;-78
2022/03/25 02:35:45;;;;;;;33.25;15.55;;;;;;;-2.40;71.98;99456.22;2628391;28;20747;-77
2022/03/25 02:37:01;;;;;;;38.90;15.57;;;;;;;-2.48;72.51;99462.72;2627869;28;20051;-78
2022/03/25 02:38:21;;;;;;;34.58;16.05;;;;;;;-2.54;71.50;99465.03;2627444;28;20755;-79
2022/03/25 02:39:37;;;;;;;38.88;16.92;;;;;;;-2.62;72.21;99463.00;2627989;28;20052;-78
2022/03/25 02:40:53;;;;;;;39.83;16.38;;;;;;;-2.66;73.87;99463.69;2627842;28;20883;-77
2022/03/25 02:42:09;;;;;;;38.03;16.95;;;;;;;-2.62;72.77;99465.56;2628110;28;20048;-78
2022/03/25 02:43:24;;;;;;;34.03;15.70;;;;;;;-2.58;74.19;99464.03;2627065;28;20048;-78
2022/03/25 02:44:40;;;;;;;39.47;16.88;;;;;;;-2.50;73.92;99461.78;2627808;28;20517;-78
2022/03/25 02:45:55;;;;;;;38.50;16.75;;;;;;;-2.50;73.91;99465.22;2627855;28;20052;-78
2022/03/25 02:47:11;;;;;;;38.75;17.73;;;;;;;-2.50;73.68;99462.66;2628013;28;20689;-77
2022/03/25 02:48:26;;;;;;;34.85;15.43;;;;;;;-2.49;73.17;99461.84;2627969;28;20048;-77
2022/03/25 02:49:42;;;;;;;38.08;16.45;;;;;;;-2.49;73.37;99466.97;2628216;28;20047;-77
2022/03/25 02:50:58;;;;;;;39.13;17.65;;;;;;;-2.51;73.17;99466.03;2627472;28;20042;-78
2022/03/25 02:52:13;;;;;;;38.80;17.00;;;;;;;-2.56;73.78;99467.53;2627798;28;20297;-78
2022/03/25 02:53:29;;;;;;;35.67;15.77;;;;;;;-2.55;73.02;99474.41;2626856;28;20066;-78
2022/03/25 02:54:45;;;;;;;36.35;16.95;;;;;;;-2.57;73.07;99469.22;2627242;28;20055;-78
2022/03/25 02:56:00;;;;;;;37.22;16.30;;;;;;;-2.56;73.23;99470.09;2626996;28;20047;-77
2022/03/25 02:57:16;;;;;;;36.00;16.17;;;;;;;-2.55;72.14;99464.13;2627074;28;20501;-77
2022/03/25 02:58:31;;;;;;;40.47;16.73;;;;;;;-2.56;72.07;99463.28;2627842;28;20128;-77
2022/03/25 02:59:47;;;;;;;41.88;16.65;;;;;;;-2.56;71.86;99470.09;2627938;28;20055;-77
2022/03/25 03:01:03;;;;;;;36.88;16.27;;;;;;;-2.55;71.98;99464.13;2627593;28;20410;-78
2022/03/25 03:02:19;;;;;;;33.17;14.88;;;;;;;-2.55;71.99;99469.28;2627912;28;20048;-79
2022/03/25 03:03:35;;;;;;;31.55;14.35;;;;;;;-2.56;71.60;99468.41;2627255;28;20052;-78
2022/03/25 03:04:51;;;;;;;36.35;15.85;;;;;;;-2.54;71.24;99470.16;2627476;28;20058;-77
2022/03/25 03:06:07;;;;;;;35.88;14.10;;;;;;;-2.57;71.65;99466.66;2627865;28;20048;-77
2022/03/25 03:07:22;;;;;;;38.40;16.00;;;;;;;-2.62;71.65;99459.59;2627616;28;20168;-77
2022/03/25 03:08:41;;;;;;;33.92;14.55;;;;;;;-2.66;71.30;99465.38;2627720;28;20062;-81
2022/03/25 03:09:56;;;;;;;33.95;14.90;;;;;;;-2.72;71.63;99455.78;2627771;28;20044;-79
2022/03/25 03:11:13;;;;;;;40.90;16.50;;;;;;;-2.73;72.39;99465.13;2627567;28;20583;-78
2022/03/25 03:12:29;;;;;;;34.17;15.05;;;;;;;-2.77;72.37;99467.50;2627749;28;20051;-78
2022/03/25 03:13:44;;;;;;;37.70;15.88;;;;;;;-2.82;72.52;99463.88;2627618;28;20044;-77
2022/03/25 03:15:00;;;;;;;38.63;15.93;;;;;;;-2.84;72.66;99466.38;2627209;28;20121;-79
2022/03/25 03:16:16;;;;;;;38.60;15.13;;;;;;;-2.86;71.82;99461.19;2627724;28;20048;-77
2022/03/25 03:17:32;;;;;;;37.67;16.08;;;;;;;-2.86;71.58;99468.00;2626749;28;20052;-78
2022/03/25 03:18:47;;;;;;;37.10;16.30;;;;;;;-2.94;72.68;99465.09;2627528;28;20052;-77
2022/03/25 03:20:04;;;;;;;38.75;16.52;;;;;;;-2.92;72.54;99463.47;2627289;28;20055;-79
2022/03/25 03:21:23;;;;;;;35.00;16.02;;;;;;;-2.89;73.66;99465.31;2627471;28;20130;-77
2022/03/25 03:22:39;;;;;;;35.17;15.45;;;;;;;-2.93;73.33;99469.41;2627301;28;20095;-77
2022/03/25 03:23:56;;;;;;;31.60;15.80;;;;;;;-2.92;73.55;99460.91;2627693;28;20060;-77
2022/03/25 03:25:11;;;;;;;31.45;15.02;;;;;;;-2.89;73.01;99468.72;2626845;28;20058;-79
2022/03/25 03:26:27;;;;;;;40.85;15.05;;;;;;;-2.93;74.00;99469.41;2627800;28;20047;-77
2022/03/25 03:27:42;;;;;;;34.70;15.32;;;;;;;-2.89;74.10;99470.44;2627755;28;20043;-78
2022/03/25 03:28:59;;;;;;;37.78;16.02;;;;;;;-2.81;74.29;99463.06;2627245;28;20044;-77
2022/03/25 03:30:15;;;;;;;38.20;17.27;;;;;;;-2.77;73.18;99460.69;2627373;28;20051;-79
2022/03/25 03:31:31;;;;;;;32.65;15.15;;;;;;;-2.74;72.65;99465.06;2626997;28;20058;-78
2022/03/25 03:32:47;;;;;;;36.72;15.18;;;;;;;-2.74;72.67;99462.50;2627218;28;20054;-79
2022/03/25 03:34:02;;;;;;;33.42;15.70;;;;;;;-2.75;72.15;99464.19;2627489;28;20048;-77
2022/03/25 03:35:18;;;;;;;33.15;15.75;;;;;;;-2.81;71.95;99460.50;2627783;28;20402;-77
2022/03/25 03:36:34;;;;;;;37.30;15.43;;;;;;;-2.87;71.76;99464.53;2626975;28;20052;-78
2022/03/25 03:37:49;;;;;;;35.38;15.88;;;;;;;-2.92;71.78;99460.06;2627056;28;20632;-78
2022/03/25 03:39:05;;;;;;;31.83;14.95;;;;;;;-2.97;72.01;99467.53;2627339;28;20052;-78
2022/03/25 03:40:21;;;;;;;37.15;14.82;;;;;;;-2.96;71.93;99466.72;2627502;28;20088;-79
2022/03/25 03:41:38;;;;;;;35.53;15.32;;;;;;;-2.98;71.85;99470.91;2626879;28;20241;-78
2022/03/25 03:42:53;;;;;;;36.33;14.80;;;;;;;-3.05;72.47;99464.66;2626388;28;20086;-78
2022/03/25 03:44:09;;;;;;;36.15;16.30;;;;;;;-3.08;72.69;99467.06;2626570;28;20062;-77
2022/03/25 03:45:26;;;;;;;33.97;15.15;;;;;;;-3.19;73.50;99476.84;2627610;28;20048;-78
2022/03/25 03:46:43;;;;;;;32.00;14.55;;;;;;;-3.24;73.44;99469.75;2626749;28;20089;-78
2022/03/25 03:47:58;;;;;;;32.92;15.07;;;;;;;-3.30;73.33;99475.50;2627221;28;20097;-78
2022/03/25 03:49:14;;;;;;;31.77;13.93;;;;;;;-3.30;72.77;99470.38;2627266;28;20106;-78
2022/03/25 03:50:29;;;;;;;32.40;14.68;;;;;;;-3.23;72.92;99474.97;2627725;28;20058;-77
2022/03/25 03:51:45;;;;;;;34.08;15.30;;;;;;;-3.17;73.95;99474.34;2626447;28;20085;-78
2022/03/25 03:53:00;;;;;;;35.88;16.02;;;;;;;-3.23;74.63;99474.97;2626614;28;20548;-78
2022/03/25 03:54:16;;;;;;;35.13;14.57;;;;;;;-3.19;74.37;99478.53;2627002;28;20136;-79
2022/03/25 03:55:32;;;;;;;35.22;15.60;;;;;;;-3.25;75.00;99474.03;2626953;28;20490;-77
2022/03/25 03:56:47;;;;;;;36.50;15.65;;;;;;;-3.21;74.46;99473.34;2627312;28;20456;-78
2022/03/25 03:58:03;;;;;;;36.30;16.65;;;;;;;-3.18;74.13;99470.06;2626305;28;20097;-77
2022/03/25 03:59:18;;;;;;;34.75;16.05;;;;;;;-3.21;74.23;99469.88;2627359;28;20494;-78
2022/03/25 04:00:34;;;;;;;33.40;15.73;;;;;;;-3.19;74.16;99469.16;2626666;28;20054;-78
2022/03/25 04:01:50;;;;;;;36.28;16.02;;;;;;;-3.16;73.41;99468.44;2627235;28;20068;-77
2022/03/25 04:03:06;;;;;;;37.15;15.40;;;;;;;-3.14;73.10;99471.94;2626822;28;20052;-78
2022/03/25 04:04:21;;;;;;;34.03;14.77;;;;;;;-3.13;73.56;99464.31;2626342;28;21024;-79
2022/03/25 04:05:37;;;;;;;37.53;16.23;;;;;;;-3.14;73.46;99460.00;2625468;28;20047;-78
2022/03/25 04:06:53;;;;;;;36.40;15.25;;;;;;;-3.15;74.31;99468.47;2626740;28;20052;-77
2022/03/25 04:08:09;;;;;;;33.53;15.30;;;;;;;-3.16;74.94;99471.00;2626468;28;20403;-79
2022/03/25 04:09:25;;;;;;;35.95;14.63;;;;;;;-3.18;75.13;99464.94;2626526;28;20051;-79
2022/03/25 04:10:40;;;;;;;34.75;13.88;;;;;;;-3.22;74.17;99463.03;2626198;28;20047;-78
2022/03/25 04:11:56;;;;;;;38.97;15.27;;;;;;;-3.24;73.91;99468.09;2626252;28;20047;-78
2022/03/25 04:13:11;;;;;;;33.80;15.85;;;;;;;-3.22;73.70;99468.13;2626570;28;20071;-78
2022/03/25 04:14:27;;;;;;;33.33;15.13;;;;;;;-3.26;73.57;99462.88;2626470;28;20047;-78
2022/03/25 04:15:42;;;;;;;29.00;13.38;;;;;;;-3.28;74.71;99467.06;2626816;28;20180;-78
2022/03/25 04:16:58;;;;;;;33.03;15.10;;;;;;;-3.28;73.75;99468.78;2625818;28;20044;-79
2022/03/25 04:18:13;;;;;;;33.10;14.57;;;;;;;-3.27;72.72;99466.25;2626530;28;20059;-78
2022/03/25 04:19:29;;;;;;;35.28;14.50;;;;;;;-3.30;73.43;99467.81;2626550;28;20101;-78
2022/03/25 04:20:45;;;;;;;34.03;15.18;;;;;;;-3.32;72.66;99462.63;2626500;28;20040;-79
2022/03/25 04:22:00;;;;;;;32.90;14.50;;;;;;;-3.35;72.86;99472.75;2626573;28;20044;-78
2022/03/25 04:23:17;;;;;;;31.23;14.85;;;;;;;-3.36;72.73;99468.41;2626795;28;20044;-78
2022/03/25 04:24:33;;;;;;;35.72;15.05;;;;;;;-3.39;72.43;99468.28;2626685;28;20418;-78
2022/03/25 04:25:48;;;;;;;31.17;13.68;;;;;;;-3.40;73.26;99471.66;2626580;28;20048;-77
2022/03/25 04:27:04;;;;;;;34.75;14.93;;;;;;;-3.40;73.06;99471.66;2626912;28;20068;-78
2022/03/25 04:28:20;;;;;;;39.08;15.93;;;;;;;-3.40;72.65;99476.78;2626791;28;20118;-79
2022/03/25 04:29:35;;;;;;;34.65;14.38;;;;;;;-3.41;72.62;99467.34;2627412;28;20112;-79
2022/03/25 04:30:51;;;;;;;33.72;14.93;;;;;;;-3.38;71.81;99470.03;2626280;28;20131;-79
2022/03/25 04:32:07;;;;;;;34.03;15.13;;;;;;;-3.41;71.81;99468.22;2626918;28;20048;-78
2022/03/25 04:33:22;;;;;;;31.58;14.63;;;;;;;-3.47;72.12;99472.19;2626928;28;20486;-79
2022/03/25 04:34:38;;;;;;;34.15;14.82;;;;;;;-3.51;71.91;99472.84;2626695;28;20135;-79
2022/03/25 04:35:53;;;;;;;37.28;15.68;;;;;;;-3.51;72.51;99475.41;2626584;28;20425;-78
2022/03/25 04:37:09;;;;;;;36.92;14.63;;;;;;;-3.53;72.06;99477.03;2624090;28;20054;-78
2022/03/25 04:38:25;;;;;;;34.45;15.52;;;;;;;-3.54;72.20;99476.16;2626691;28;20052;-78
2022/03/25 04:39:40;;;;;;;37.90;16.25;;;;;;;-3.56;72.65;99470.97;2626515;28;20090;-78
2022/03/25 04:40:56;;;;;;;33.28;14.88;;;;;;;-3.55;73.31;99474.41;2625494;28;20490;-79
2022/03/25 04:42:12;;;;;;;33.33;15.10;;;;;;;-3.56;73.71;99470.09;2626282;28;20145;-79
2022/03/25 04:43:28;;;;;;;39.47;15.70;;;;;;;-3.53;73.45;99480.47;2626360;28;20468;-78
2022/03/25 04:44:44;;;;;;;33.60;15.23;;;;;;;-3.52;73.06;99477.09;2626219;28;20055;-79
2022/03/25 04:46:00;;;;;;;37.70;15.55;;;;;;;-3.51;73.60;99478.84;2625860;28;20585;-79
2022/03/25 04:47:15;;;;;;;31.45;15.50;;;;;;;-3.55;74.39;99475.28;2625321;28;20089;-78
2022/03/25 04:48:32;;;;;;;40.42;16.58;;;;;;;-3.58;76.01;99484.50;2625061;28;20055;-79
2022/03/25 04:49:48;;;;;;;39.03;16.70;;;;;;;-3.59;76.01;99486.19;2625535;28;20051;-82
2022/03/25 04:51:03;;;;;;;35.92;15.65;;;;;;;-3.64;76.50;99494.47;2625900;28;20037;-79
2022/03/25 04:52:19;;;;;;;36.85;16.05;;;;;;;-3.64;76.67;99485.09;2625924;28;20049;-79
2022/03/25 04:53:34;;;;;;;38.88;16.73;;;;;;;-3.66;76.32;99490.97;2626223;28;20048;-78
2022/03/25 04:54:50;;;;;;;32.88;13.95;;;;;;;-3.65;76.56;99493.56;2626237;28;20044;-79
2022/03/25 04:56:06;;;;;;;37.25;16.42;;;;;;;-3.67;76.66;99487.50;2625973;28;20044;-78
2022/03/25 04:57:22;;;;;;;39.35;15.82;;;;;;;-3.72;75.30;99486.44;2625429;28;20608;-78
2022/03/25 04:58:37;;;;;;;35.17;15.48;;;;;;;-3.75;76.15;99492.28;2626117;28;20048;-78
2022/03/25 04:59:53;;;;;;;36.80;15.57;;;;;;;-3.77;76.07;99486.22;2626225;28;20079;-78
2022/03/25 05:01:08;;;;;;;42.05;15.38;;;;;;;-3.75;76.57;99487.16;2625352;28;20048;-78
2022/03/25 05:02:24;;;;;;;36.00;15.90;;;;;;;-3.77;75.96;99488.78;2625591;28;20075;-78
2022/03/25 05:03:39;;;;;;;34.40;15.88;;;;;;;-3.77;75.95;99493.00;2625141;28;20047;-78
2022/03/25 05:04:55;;;;;;;37.83;16.40;;;;;;;-3.77;75.38;99493.00;2626872;28;20136;-78
2022/03/25 05:06:11;;;;;;;30.38;14.48;;;;;;;-3.78;75.35;99489.56;2625922;28;20059;-77
2022/03/25 05:07:26;;;;;;;40.40;16.38;;;;;;;-3.73;75.04;99489.78;2625834;28;20059;-78
2022/03/25 05:08:42;;;;;;;31.80;15.05;;;;;;;-3.72;75.07;99481.31;2625603;28;20036;-78
2022/03/25 05:09:59;;;;;;;39.28;16.65;;;;;;;-3.70;74.68;99485.72;2626711;28;20487;-78
2022/03/25 05:11:14;;;;;;;40.45;14.88;;;;;;;-3.68;74.88;99490.88;2624510;28;20139;-78
2022/03/25 05:12:30;;;;;;;34.65;13.80;;;;;;;-3.72;74.96;99494.09;2626154;28;20494;-78
2022/03/25 05:13:45;;;;;;;35.28;15.20;;;;;;;-3.71;74.37;99493.31;2626492;28;20082;-78
2022/03/25 05:15:01;;;;;;;35.00;15.25;;;;;;;-3.77;75.00;99487.88;2625998;28;20056;-78
2022/03/25 05:16:16;;;;;;;34.10;15.30;;;;;;;-3.80;74.35;99493.75;2626238;28;20615;-78
2022/03/25 05:17:32;;;;;;;33.13;14.73;;;;;;;-3.76;74.36;99492.22;2627897;28;20051;-78
2022/03/25 05:18:48;;;;;;;34.47;15.27;;;;;;;-3.76;74.22;99498.19;2628265;28;20474;-81
2022/03/25 05:20:08;;;;;;;30.15;14.10;;;;;;;-3.76;73.98;99495.63;2627152;28;20051;-78
2022/03/25 05:21:24;;;;;;;39.13;15.13;;;;;;;-3.77;74.78;99491.34;2627738;28;20048;-79
2022/03/25 05:22:40;;;;;;;34.55;15.40;;;;;;;-3.77;74.79;99496.44;2628472;28;20051;-79
2022/03/25 05:23:55;;;;;;;32.72;14.45;;;;;;;-3.77;75.04;99499.00;2628478;28;20052;-78
2022/03/25 05:25:11;;;;;;;34.50;15.15;;;;;;;-3.74;74.48;99494.03;2628074;28;20048;-78
2022/03/25 05:26:27;;;;;;;39.70;15.57;;;;;;;-3.76;75.12;99495.63;2627348;28;20125;-79
2022/03/25 05:27:47;;;;;;;38.72;14.48;;;;;;;-3.76;75.77;99495.63;2627891;28;20055;-78
2022/03/25 05:29:03;;;;;;;30.45;13.32;;;;;;;-3.72;75.37;99496.66;2628610;28;20044;-78
2022/03/25 05:30:22;;;;;;;36.85;17.00;;;;;;;-3.72;77.02;99502.66;2627937;28;20535;-78
2022/03/25 05:31:37;;;;;;;41.58;17.25;;;;;;;-3.66;76.62;99498.63;2626000;28;20066;-79
2022/03/25 05:32:54;;;;;;;38.58;17.67;;;;;;;-3.63;76.29;99502.22;2627654;28;20117;-78
2022/03/25 05:34:10;;;;;;;45.88;20.05;;;;;;;-3.61;76.47;99502.28;2628507;28;20044;-78
2022/03/25 05:35:27;;;;;;;46.28;21.58;;;;;;;-3.58;76.25;99503.31;2628972;28;20464;-78
2022/03/25 05:36:43;;;;;;;43.53;20.08;;;;;;;-3.47;76.63;99505.47;2627929;28;20048;-79
2022/03/25 05:37:58;;;;;;;41.88;20.23;;;;;;;-3.45;76.96;99502.16;2627793;28;20055;-80
2022/03/25 05:39:17;;;;;;;43.78;19.02;;;;;;;-3.37;76.74;99511.88;2628587;28;20383;-79
2022/03/25 05:40:33;;;;;;;42.78;18.88;;;;;;;-3.32;76.42;99505.28;2628289;28;20052;-78
2022/03/25 05:41:49;;;;;;;46.15;19.88;;;;;;;-3.29;76.32;99511.41;2628731;28;20109;-78
2022/03/25 05:43:04;;;;;;;43.08;18.65;;;;;;;-3.26;76.07;99509.00;2628305;28;20540;-78
2022/03/25 05:44:20;;;;;;;41.20;17.98;;;;;;;-3.23;76.17;99507.38;2628064;28;20048;-78
2022/03/25 05:45:39;;;;;;;45.90;17.75;;;;;;;-3.20;75.87;99505.84;2627764;28;20047;-78
2022/03/25 05:46:54;;;;;;;35.72;16.02;;;;;;;-3.18;74.65;99506.78;2627180;28;20044;-78
2022/03/25 05:48:13;;;;;;;35.45;15.88;;;;;;;-3.16;74.99;99512.84;2627332;28;20067;-77
2022/03/25 05:49:29;;;;;;;35.45;15.98;;;;;;;-3.13;75.03;99505.31;2627710;28;20071;-78